Riceville, New York
Current Conditions -  °F | °C
As of 1:35 PM on Thursday 29 Jan 2015 (Local Time) from KNY0 Reporting Station
Broken Clouds Broken Clouds  
Wind Chill: 13°   Ceiling: 12000
Heat Index: 23°   Visibility: 10mi
Dew Point:   Wind: 9mph
Humidity: 39%   Direction: 110°ESE
Pressure: 30.06"   Gusts: NA
Location:  43.1204°N, 74.3629°W
Report Text: KNY0 291835Z AUTO 11008KT 10SM BKN120 M05/M17 A3006 RMK AO2 T10511171
Loading
Personal Weather Stations






























Interactive Weather Map New forecast layout! Learn more

10-Day Weather Forecast

Advertisements
Track Severe Weather on mobile